sensor_id;sensor_type;location;lat;lon;timestamp;P1;durP1;ratioP1;P2;durP2;ratioP2
22113;SDS011;11223;49.968;9.062;2022-12-26T00:01:51;4.63;;;3.17;;
22113;SDS011;11223;49.968;9.062;2022-12-26T00:04:18;3.95;;;3.15;;
22113;SDS011;11223;49.968;9.062;2022-12-26T00:06:44;4.85;;;3.88;;
22113;SDS011;11223;49.968;9.062;2022-12-26T00:09:10;3.43;;;3.13;;
22113;SDS011;11223;49.968;9.062;2022-12-26T00:11:36;3.37;;;3.07;;
22113;SDS011;11223;49.968;9.062;2022-12-26T00:14:03;3.30;;;3.00;;
22113;SDS011;11223;49.968;9.062;2022-12-26T00:16:31;4.00;;;3.60;;
22113;SDS011;11223;49.968;9.062;2022-12-26T00:18:57;3.75;;;3.30;;
22113;SDS011;11223;49.968;9.062;2022-12-26T00:21:23;4.83;;;3.40;;
22113;SDS011;11223;49.968;9.062;2022-12-26T00:23:52;3.40;;;3.10;;
22113;SDS011;11223;49.968;9.062;2022-12-26T00:26:19;3.63;;;3.33;;
22113;SDS011;11223;49.968;9.062;2022-12-26T00:28:46;5.28;;;2.92;;
22113;SDS011;11223;49.968;9.062;2022-12-26T00:31:13;3.83;;;3.53;;
22113;SDS011;11223;49.968;9.062;2022-12-26T00:33:40;3.65;;;3.25;;
22113;SDS011;11223;49.968;9.062;2022-12-26T00:36:07;3.20;;;2.90;;
22113;SDS011;11223;49.968;9.062;2022-12-26T00:38:37;3.72;;;3.38;;
22113;SDS011;11223;49.968;9.062;2022-12-26T00:41:04;3.33;;;3.03;;
22113;SDS011;11223;49.968;9.062;2022-12-26T00:43:30;4.32;;;2.88;;
22113;SDS011;11223;49.968;9.062;2022-12-26T00:45:57;4.30;;;3.65;;
22113;SDS011;11223;49.968;9.062;2022-12-26T00:48:22;3.53;;;3.22;;
22113;SDS011;11223;49.968;9.062;2022-12-26T00:50:48;2.50;;;2.30;;
22113;SDS011;11223;49.968;9.062;2022-12-26T00:53:14;3.22;;;2.92;;
22113;SDS011;11223;49.968;9.062;2022-12-26T00:55:40;3.07;;;2.77;;
22113;SDS011;11223;49.968;9.062;2022-12-26T00:58:06;4.30;;;3.90;;
22113;SDS011;11223;49.968;9.062;2022-12-26T01:00:32;3.30;;;3.00;;
22113;SDS011;11223;49.968;9.062;2022-12-26T01:02:57;4.63;;;3.47;;
22113;SDS011;11223;49.968;9.062;2022-12-26T01:05:23;3.30;;;3.10;;
22113;SDS011;11223;49.968;9.062;2022-12-26T01:07:49;3.33;;;3.03;;
22113;SDS011;11223;49.968;9.062;2022-12-26T01:10:14;3.17;;;2.87;;
22113;SDS011;11223;49.968;9.062;2022-12-26T01:12:40;3.53;;;3.23;;
22113;SDS011;11223;49.968;9.062;2022-12-26T01:15:06;3.90;;;2.63;;
22113;SDS011;11223;49.968;9.062;2022-12-26T01:17:32;4.07;;;3.22;;
22113;SDS011;11223;49.968;9.062;2022-12-26T01:19:58;3.40;;;2.47;;
22113;SDS011;11223;49.968;9.062;2022-12-26T01:22:25;3.60;;;3.08;;
22113;SDS011;11223;49.968;9.062;2022-12-26T01:24:55;3.55;;;3.25;;
22113;SDS011;11223;49.968;9.062;2022-12-26T01:27:22;5.10;;;3.65;;
22113;SDS011;11223;49.968;9.062;2022-12-26T01:29:49;3.97;;;3.45;;
22113;SDS011;11223;49.968;9.062;2022-12-26T01:32:15;5.05;;;3.25;;
22113;SDS011;11223;49.968;9.062;2022-12-26T01:34:40;3.70;;;3.13;;
22113;SDS011;11223;49.968;9.062;2022-12-26T01:37:06;4.40;;;3.20;;
22113;SDS011;11223;49.968;9.062;2022-12-26T01:39:32;3.03;;;2.80;;
22113;SDS011;11223;49.968;9.062;2022-12-26T01:41:57;3.67;;;3.27;;
22113;SDS011;11223;49.968;9.062;2022-12-26T01:47:45;2.70;;;2.50;;
22113;SDS011;11223;49.968;9.062;2022-12-26T01:55:39;4.95;;;3.10;;
22113;SDS011;11223;49.968;9.062;2022-12-26T01:58:09;3.05;;;2.75;;
22113;SDS011;11223;49.968;9.062;2022-12-26T02:00:38;4.63;;;3.05;;
22113;SDS011;11223;49.968;9.062;2022-12-26T02:03:05;3.38;;;2.45;;
22113;SDS011;11223;49.968;9.062;2022-12-26T02:05:53;2.78;;;2.58;;
22113;SDS011;11223;49.968;9.062;2022-12-26T02:08:21;3.08;;;2.88;;
22113;SDS011;11223;49.968;9.062;2022-12-26T02:10:52;4.40;;;3.25;;
22113;SDS011;11223;49.968;9.062;2022-12-26T02:13:28;2.85;;;2.65;;
22113;SDS011;11223;49.968;9.062;2022-12-26T02:15:55;4.35;;;2.85;;
22113;SDS011;11223;49.968;9.062;2022-12-26T02:18:21;3.22;;;2.92;;
22113;SDS011;11223;49.968;9.062;2022-12-26T02:35:30;2.92;;;2.72;;
22113;SDS011;11223;49.968;9.062;2022-12-26T02:40:52;3.47;;;3.17;;
22113;SDS011;11223;49.968;9.062;2022-12-26T02:43:26;12.38;;;3.10;;
22113;SDS011;11223;49.968;9.062;2022-12-26T02:46:03;3.05;;;2.58;;
22113;SDS011;11223;49.968;9.062;2022-12-26T02:49:24;3.17;;;2.80;;
22113;SDS011;11223;49.968;9.062;2022-12-26T02:52:04;4.50;;;3.05;;
22113;SDS011;11223;49.968;9.062;2022-12-26T02:58:18;3.50;;;3.20;;
22113;SDS011;11223;49.968;9.062;2022-12-26T03:01:07;3.47;;;3.17;;
22113;SDS011;11223;49.968;9.062;2022-12-26T03:04:12;10.95;;;4.05;;
22113;SDS011;11223;49.968;9.062;2022-12-26T03:07:00;3.15;;;2.95;;
22113;SDS011;11223;49.968;9.062;2022-12-26T03:09:48;3.15;;;2.95;;
22113;SDS011;11223;49.968;9.062;2022-12-26T03:12:38;3.95;;;3.05;;
22113;SDS011;11223;49.968;9.062;2022-12-26T03:15:28;3.75;;;3.28;;
22113;SDS011;11223;49.968;9.062;2022-12-26T03:18:17;3.38;;;2.67;;
22113;SDS011;11223;49.968;9.062;2022-12-26T03:20:44;3.20;;;2.90;;
22113;SDS011;11223;49.968;9.062;2022-12-26T03:23:11;3.47;;;2.92;;
22113;SDS011;11223;49.968;9.062;2022-12-26T03:25:51;4.80;;;3.90;;
22113;SDS011;11223;49.968;9.062;2022-12-26T03:28:37;3.55;;;2.78;;
22113;SDS011;11223;49.968;9.062;2022-12-26T03:31:06;3.15;;;2.83;;
22113;SDS011;11223;49.968;9.062;2022-12-26T03:33:35;3.42;;;3.13;;
22113;SDS011;11223;49.968;9.062;2022-12-26T03:36:30;4.45;;;3.00;;
22113;SDS011;11223;49.968;9.062;2022-12-26T03:41:54;3.17;;;2.80;;
22113;SDS011;11223;49.968;9.062;2022-12-26T03:44:54;2.72;;;2.50;;
22113;SDS011;11223;49.968;9.062;2022-12-26T03:47:46;3.70;;;3.40;;
22113;SDS011;11223;49.968;9.062;2022-12-26T03:50:40;4.65;;;3.10;;
22113;SDS011;11223;49.968;9.062;2022-12-26T03:53:35;3.25;;;2.65;;
22113;SDS011;11223;49.968;9.062;2022-12-26T03:56:33;3.78;;;3.47;;
22113;SDS011;11223;49.968;9.062;2022-12-26T03:59:37;3.83;;;2.83;;
22113;SDS011;11223;49.968;9.062;2022-12-26T04:02:31;5.70;;;3.25;;
22113;SDS011;11223;49.968;9.062;2022-12-26T04:05:17;3.20;;;2.90;;
22113;SDS011;11223;49.968;9.062;2022-12-26T04:08:04;2.83;;;2.60;;
22113;SDS011;11223;49.968;9.062;2022-12-26T04:10:56;6.20;;;3.25;;
22113;SDS011;11223;49.968;9.062;2022-12-26T04:16:53;2.97;;;2.50;;
22113;SDS011;11223;49.968;9.062;2022-12-26T04:25:35;4.95;;;3.35;;
22113;SDS011;11223;49.968;9.062;2022-12-26T04:28:27;3.75;;;3.00;;
22113;SDS011;11223;49.968;9.062;2022-12-26T04:31:18;4.35;;;2.95;;
22113;SDS011;11223;49.968;9.062;2022-12-26T04:34:53;2.90;;;2.70;;
22113;SDS011;11223;49.968;9.062;2022-12-26T04:37:24;3.30;;;3.00;;
22113;SDS011;11223;49.968;9.062;2022-12-26T04:40:15;4.38;;;3.15;;
22113;SDS011;11223;49.968;9.062;2022-12-26T04:43:02;3.17;;;2.85;;
22113;SDS011;11223;49.968;9.062;2022-12-26T04:45:50;3.25;;;2.95;;
22113;SDS011;11223;49.968;9.062;2022-12-26T04:48:16;3.08;;;2.78;;
22113;SDS011;11223;49.968;9.062;2022-12-26T04:51:00;3.83;;;2.63;;
22113;SDS011;11223;49.968;9.062;2022-12-26T04:53:26;3.50;;;3.07;;
22113;SDS011;11223;49.968;9.062;2022-12-26T04:55:52;3.50;;;3.10;;
22113;SDS011;11223;49.968;9.062;2022-12-26T04:58:17;3.03;;;2.83;;
22113;SDS011;11223;49.968;9.062;2022-12-26T05:00:43;2.40;;;2.17;;
22113;SDS011;11223;49.968;9.062;2022-12-26T05:03:12;2.90;;;2.50;;
22113;SDS011;11223;49.968;9.062;2022-12-26T05:05:57;4.80;;;2.60;;
22113;SDS011;11223;49.968;9.062;2022-12-26T05:08:42;3.05;;;2.53;;
22113;SDS011;11223;49.968;9.062;2022-12-26T05:11:28;3.13;;;2.83;;
22113;SDS011;11223;49.968;9.062;2022-12-26T05:13:56;3.40;;;3.10;;
22113;SDS011;11223;49.968;9.062;2022-12-26T05:16:23;2.60;;;2.17;;
22113;SDS011;11223;49.968;9.062;2022-12-26T05:19:10;3.40;;;3.08;;
22113;SDS011;11223;49.968;9.062;2022-12-26T05:21:59;4.38;;;2.95;;
22113;SDS011;11223;49.968;9.062;2022-12-26T05:24:46;3.55;;;3.15;;
22113;SDS011;11223;49.968;9.062;2022-12-26T05:27:35;3.10;;;2.90;;
22113;SDS011;11223;49.968;9.062;2022-12-26T05:30:21;2.63;;;2.42;;
22113;SDS011;11223;49.968;9.062;2022-12-26T05:32:47;3.85;;;3.55;;
22113;SDS011;11223;49.968;9.062;2022-12-26T05:35:31;2.40;;;2.20;;
22113;SDS011;11223;49.968;9.062;2022-12-26T05:37:57;4.90;;;2.85;;
22113;SDS011;11223;49.968;9.062;2022-12-26T05:40:23;2.80;;;2.47;;
22113;SDS011;11223;49.968;9.062;2022-12-26T05:42:49;5.23;;;3.60;;
22113;SDS011;11223;49.968;9.062;2022-12-26T05:45:14;3.00;;;2.77;;
22113;SDS011;11223;49.968;9.062;2022-12-26T05:47:40;3.70;;;3.03;;
22113;SDS011;11223;49.968;9.062;2022-12-26T05:50:06;3.10;;;2.67;;
22113;SDS011;11223;49.968;9.062;2022-12-26T05:52:32;3.85;;;3.22;;
22113;SDS011;11223;49.968;9.062;2022-12-26T05:54:57;2.77;;;2.47;;
22113;SDS011;11223;49.968;9.062;2022-12-26T05:57:23;2.63;;;2.43;;
22113;SDS011;11223;49.968;9.062;2022-12-26T05:59:49;1.90;;;1.80;;
22113;SDS011;11223;49.968;9.062;2022-12-26T06:02:14;5.30;;;2.80;;
22113;SDS011;11223;49.968;9.062;2022-12-26T06:04:40;4.03;;;2.33;;
22113;SDS011;11223;49.968;9.062;2022-12-26T06:07:05;3.30;;;2.83;;
22113;SDS011;11223;49.968;9.062;2022-12-26T06:09:31;3.77;;;2.70;;
22113;SDS011;11223;49.968;9.062;2022-12-26T06:11:57;3.87;;;2.90;;
22113;SDS011;11223;49.968;9.062;2022-12-26T06:14:22;3.27;;;2.90;;
22113;SDS011;11223;49.968;9.062;2022-12-26T06:16:48;3.53;;;2.90;;
22113;SDS011;11223;49.968;9.062;2022-12-26T06:19:13;3.53;;;2.63;;
22113;SDS011;11223;49.968;9.062;2022-12-26T06:21:39;1.77;;;1.67;;
22113;SDS011;11223;49.968;9.062;2022-12-26T06:24:05;3.67;;;2.70;;
22113;SDS011;11223;49.968;9.062;2022-12-26T06:26:30;3.00;;;2.40;;
22113;SDS011;11223;49.968;9.062;2022-12-26T06:28:56;2.53;;;2.20;;
22113;SDS011;11223;49.968;9.062;2022-12-26T06:31:22;3.90;;;2.37;;
22113;SDS011;11223;49.968;9.062;2022-12-26T06:33:49;2.35;;;2.15;;
22113;SDS011;11223;49.968;9.062;2022-12-26T06:36:19;2.70;;;2.50;;
22113;SDS011;11223;49.968;9.062;2022-12-26T06:38:46;2.88;;;2.53;;
22113;SDS011;11223;49.968;9.062;2022-12-26T06:41:13;2.40;;;2.20;;
22113;SDS011;11223;49.968;9.062;2022-12-26T06:43:41;2.90;;;2.13;;
22113;SDS011;11223;49.968;9.062;2022-12-26T06:46:08;2.70;;;2.30;;
22113;SDS011;11223;49.968;9.062;2022-12-26T06:48:36;2.50;;;2.30;;
22113;SDS011;11223;49.968;9.062;2022-12-26T06:51:04;2.92;;;2.53;;
22113;SDS011;11223;49.968;9.062;2022-12-26T06:53:31;2.85;;;2.47;;
22113;SDS011;11223;49.968;9.062;2022-12-26T06:56:20;3.53;;;2.65;;
22113;SDS011;11223;49.968;9.062;2022-12-26T06:58:51;3.75;;;2.92;;
22113;SDS011;11223;49.968;9.062;2022-12-26T07:01:18;3.17;;;2.20;;
22113;SDS011;11223;49.968;9.062;2022-12-26T07:03:45;3.90;;;2.38;;
22113;SDS011;11223;49.968;9.062;2022-12-26T07:06:17;2.60;;;2.38;;
22113;SDS011;11223;49.968;9.062;2022-12-26T07:08:44;2.97;;;2.30;;
22113;SDS011;11223;49.968;9.062;2022-12-26T07:11:18;3.13;;;2.00;;
22113;SDS011;11223;49.968;9.062;2022-12-26T07:13:45;2.78;;;2.10;;
22113;SDS011;11223;49.968;9.062;2022-12-26T07:16:11;2.97;;;2.47;;
22113;SDS011;11223;49.968;9.062;2022-12-26T07:18:37;2.77;;;2.50;;
22113;SDS011;11223;49.968;9.062;2022-12-26T07:21:03;3.30;;;2.53;;
22113;SDS011;11223;49.968;9.062;2022-12-26T07:23:30;2.60;;;2.40;;
22113;SDS011;11223;49.968;9.062;2022-12-26T07:25:56;3.90;;;2.80;;
22113;SDS011;11223;49.968;9.062;2022-12-26T07:28:22;3.33;;;2.57;;
22113;SDS011;11223;49.968;9.062;2022-12-26T07:30:48;3.00;;;2.63;;
22113;SDS011;11223;49.968;9.062;2022-12-26T07:33:14;3.28;;;2.42;;
22113;SDS011;11223;49.968;9.062;2022-12-26T07:35:40;2.57;;;2.37;;
22113;SDS011;11223;49.968;9.062;2022-12-26T07:38:07;3.92;;;2.95;;
22113;SDS011;11223;49.968;9.062;2022-12-26T07:40:33;2.83;;;2.60;;
22113;SDS011;11223;49.968;9.062;2022-12-26T07:42:58;3.40;;;3.00;;
22113;SDS011;11223;49.968;9.062;2022-12-26T07:45:24;2.30;;;2.10;;
22113;SDS011;11223;49.968;9.062;2022-12-26T07:47:53;2.90;;;2.70;;
22113;SDS011;11223;49.968;9.062;2022-12-26T07:50:19;3.15;;;2.45;;
22113;SDS011;11223;49.968;9.062;2022-12-26T07:52:45;3.60;;;3.30;;
22113;SDS011;11223;49.968;9.062;2022-12-26T07:55:11;3.50;;;3.23;;
22113;SDS011;11223;49.968;9.062;2022-12-26T08:07:51;3.80;;;3.05;;
22113;SDS011;11223;49.968;9.062;2022-12-26T08:10:19;2.80;;;2.60;;
22113;SDS011;11223;49.968;9.062;2022-12-26T08:12:45;2.92;;;2.63;;
22113;SDS011;11223;49.968;9.062;2022-12-26T08:25:11;2.92;;;2.72;;
22113;SDS011;11223;49.968;9.062;2022-12-26T08:27:36;3.70;;;3.40;;
22113;SDS011;11223;49.968;9.062;2022-12-26T08:30:02;3.83;;;3.53;;
22113;SDS011;11223;49.968;9.062;2022-12-26T08:32:32;3.63;;;3.05;;
22113;SDS011;11223;49.968;9.062;2022-12-26T08:38:20;3.30;;;2.83;;
22113;SDS011;11223;49.968;9.062;2022-12-26T08:40:55;3.70;;;3.30;;
22113;SDS011;11223;49.968;9.062;2022-12-26T08:43:21;7.72;;;3.60;;
22113;SDS011;11223;49.968;9.062;2022-12-26T08:45:55;5.22;;;3.58;;
22113;SDS011;11223;49.968;9.062;2022-12-26T08:48:25;3.95;;;3.55;;
22113;SDS011;11223;49.968;9.062;2022-12-26T08:50:55;3.47;;;3.17;;
22113;SDS011;11223;49.968;9.062;2022-12-26T08:53:22;3.80;;;3.22;;
22113;SDS011;11223;49.968;9.062;2022-12-26T08:55:48;2.90;;;2.70;;
22113;SDS011;11223;49.968;9.062;2022-12-26T08:58:13;4.50;;;3.10;;
22113;SDS011;11223;49.968;9.062;2022-12-26T09:00:39;2.80;;;2.40;;
22113;SDS011;11223;49.968;9.062;2022-12-26T09:03:04;4.00;;;3.47;;
22113;SDS011;11223;49.968;9.062;2022-12-26T09:05:33;3.10;;;2.90;;
22113;SDS011;11223;49.968;9.062;2022-12-26T09:14:47;3.20;;;2.85;;
22113;SDS011;11223;49.968;9.062;2022-12-26T09:17:13;3.47;;;3.03;;
22113;SDS011;11223;49.968;9.062;2022-12-26T09:19:39;5.30;;;3.40;;
22113;SDS011;11223;49.968;9.062;2022-12-26T09:22:14;2.90;;;2.70;;
22113;SDS011;11223;49.968;9.062;2022-12-26T09:24:58;3.22;;;3.03;;
22113;SDS011;11223;49.968;9.062;2022-12-26T09:27:24;4.27;;;2.97;;
22113;SDS011;11223;49.968;9.062;2022-12-26T09:29:50;3.40;;;3.10;;
22113;SDS011;11223;49.968;9.062;2022-12-26T09:32:16;2.90;;;2.70;;
22113;SDS011;11223;49.968;9.062;2022-12-26T09:34:42;5.00;;;3.30;;
22113;SDS011;11223;49.968;9.062;2022-12-26T09:37:07;3.00;;;2.80;;
22113;SDS011;11223;49.968;9.062;2022-12-26T09:39:33;3.27;;;2.97;;
22113;SDS011;11223;49.968;9.062;2022-12-26T09:45:36;4.05;;;3.22;;
22113;SDS011;11223;49.968;9.062;2022-12-26T09:48:13;2.78;;;2.55;;
22113;SDS011;11223;49.968;9.062;2022-12-26T09:50:43;3.70;;;3.40;;
22113;SDS011;11223;49.968;9.062;2022-12-26T09:56:10;3.65;;;2.70;;
22113;SDS011;11223;49.968;9.062;2022-12-26T10:01:46;3.15;;;2.85;;
22113;SDS011;11223;49.968;9.062;2022-12-26T10:04:34;3.30;;;3.00;;
22113;SDS011;11223;49.968;9.062;2022-12-26T10:07:09;3.42;;;2.95;;
22113;SDS011;11223;49.968;9.062;2022-12-26T10:09:48;3.33;;;3.03;;
22113;SDS011;11223;49.968;9.062;2022-12-26T10:12:34;3.03;;;2.72;;
22113;SDS011;11223;49.968;9.062;2022-12-26T10:15:33;2.95;;;2.67;;
22113;SDS011;11223;49.968;9.062;2022-12-26T10:24:07;2.72;;;2.53;;
22113;SDS011;11223;49.968;9.062;2022-12-26T10:26:38;2.55;;;2.35;;
22113;SDS011;11223;49.968;9.062;2022-12-26T10:31:41;2.67;;;2.47;;
22113;SDS011;11223;49.968;9.062;2022-12-26T10:34:17;2.50;;;2.30;;
22113;SDS011;11223;49.968;9.062;2022-12-26T10:39:55;2.90;;;2.50;;
22113;SDS011;11223;49.968;9.062;2022-12-26T10:42:42;2.22;;;2.03;;
22113;SDS011;11223;49.968;9.062;2022-12-26T10:45:14;3.53;;;2.38;;
22113;SDS011;11223;49.968;9.062;2022-12-26T10:47:43;2.75;;;2.40;;
22113;SDS011;11223;49.968;9.062;2022-12-26T10:50:22;2.65;;;2.28;;
22113;SDS011;11223;49.968;9.062;2022-12-26T10:52:59;2.03;;;1.92;;
22113;SDS011;11223;49.968;9.062;2022-12-26T10:55:28;3.20;;;2.90;;
22113;SDS011;11223;49.968;9.062;2022-12-26T10:57:56;2.83;;;2.40;;
22113;SDS011;11223;49.968;9.062;2022-12-26T11:00:29;5.38;;;2.75;;
22113;SDS011;11223;49.968;9.062;2022-12-26T11:03:03;3.27;;;2.13;;
22113;SDS011;11223;49.968;9.062;2022-12-26T11:05:34;2.22;;;2.05;;
22113;SDS011;11223;49.968;9.062;2022-12-26T11:11:07;2.55;;;2.35;;
22113;SDS011;11223;49.968;9.062;2022-12-26T11:13:39;2.53;;;2.33;;
22113;SDS011;11223;49.968;9.062;2022-12-26T11:16:13;2.40;;;2.08;;
22113;SDS011;11223;49.968;9.062;2022-12-26T11:18:50;2.33;;;2.13;;
22113;SDS011;11223;49.968;9.062;2022-12-26T11:23:41;2.70;;;2.40;;
22113;SDS011;11223;49.968;9.062;2022-12-26T11:26:21;2.85;;;2.20;;
22113;SDS011;11223;49.968;9.062;2022-12-26T11:29:13;2.33;;;2.13;;
22113;SDS011;11223;49.968;9.062;2022-12-26T11:31:43;2.60;;;2.40;;
22113;SDS011;11223;49.968;9.062;2022-12-26T11:37:23;2.55;;;1.90;;
22113;SDS011;11223;49.968;9.062;2022-12-26T11:40:46;1.80;;;1.70;;
22113;SDS011;11223;49.968;9.062;2022-12-26T11:43:32;2.33;;;2.13;;
22113;SDS011;11223;49.968;9.062;2022-12-26T11:45:58;2.43;;;2.00;;
22113;SDS011;11223;49.968;9.062;2022-12-26T11:48:24;1.90;;;1.80;;
22113;SDS011;11223;49.968;9.062;2022-12-26T11:50:51;2.40;;;2.20;;
22113;SDS011;11223;49.968;9.062;2022-12-26T11:53:18;3.65;;;2.30;;
22113;SDS011;11223;49.968;9.062;2022-12-26T11:55:56;2.38;;;2.17;;
22113;SDS011;11223;49.968;9.062;2022-12-26T11:58:28;2.45;;;2.10;;
22113;SDS011;11223;49.968;9.062;2022-12-26T12:17:35;2.22;;;1.75;;
22113;SDS011;11223;49.968;9.062;2022-12-26T12:26:15;2.13;;;1.92;;
22113;SDS011;11223;49.968;9.062;2022-12-26T12:29:03;2.10;;;1.90;;
22113;SDS011;11223;49.968;9.062;2022-12-26T12:34:42;2.50;;;1.83;;
22113;SDS011;11223;49.968;9.062;2022-12-26T12:40:01;2.40;;;2.20;;
22113;SDS011;11223;49.968;9.062;2022-12-26T12:43:25;2.00;;;1.88;;
22113;SDS011;11223;49.968;9.062;2022-12-26T12:46:11;1.95;;;1.85;;
22113;SDS011;11223;49.968;9.062;2022-12-26T12:48:50;1.90;;;1.80;;
22113;SDS011;11223;49.968;9.062;2022-12-26T12:57:02;4.18;;;1.95;;
22113;SDS011;11223;49.968;9.062;2022-12-26T13:02:53;2.53;;;2.33;;
22113;SDS011;11223;49.968;9.062;2022-12-26T13:08:00;2.15;;;1.95;;
22113;SDS011;11223;49.968;9.062;2022-12-26T13:10:31;1.85;;;1.70;;
22113;SDS011;11223;49.968;9.062;2022-12-26T13:13:03;1.95;;;1.70;;
22113;SDS011;11223;49.968;9.062;2022-12-26T13:15:45;2.65;;;2.45;;
22113;SDS011;11223;49.968;9.062;2022-12-26T13:18:16;2.40;;;2.08;;
22113;SDS011;11223;49.968;9.062;2022-12-26T13:20:47;2.65;;;2.30;;
22113;SDS011;11223;49.968;9.062;2022-12-26T13:23:24;2.50;;;2.03;;
22113;SDS011;11223;49.968;9.062;2022-12-26T13:26:24;6.97;;;2.40;;
22113;SDS011;11223;49.968;9.062;2022-12-26T13:29:03;2.53;;;2.33;;
22113;SDS011;11223;49.968;9.062;2022-12-26T13:31:41;2.38;;;2.17;;
22113;SDS011;11223;49.968;9.062;2022-12-26T13:34:09;2.58;;;1.90;;
22113;SDS011;11223;49.968;9.062;2022-12-26T13:36:40;2.35;;;2.15;;
22113;SDS011;11223;49.968;9.062;2022-12-26T13:41:37;2.00;;;1.77;;
22113;SDS011;11223;49.968;9.062;2022-12-26T13:44:32;2.38;;;2.15;;
22113;SDS011;11223;49.968;9.062;2022-12-26T13:46:58;2.10;;;2.00;;
22113;SDS011;11223;49.968;9.062;2022-12-26T13:49:37;1.90;;;1.70;;
22113;SDS011;11223;49.968;9.062;2022-12-26T14:00:11;2.50;;;1.92;;
22113;SDS011;11223;49.968;9.062;2022-12-26T14:03:43;1.83;;;1.73;;
22113;SDS011;11223;49.968;9.062;2022-12-26T14:08:41;2.15;;;1.95;;
22113;SDS011;11223;49.968;9.062;2022-12-26T14:22:07;2.70;;;2.10;;
22113;SDS011;11223;49.968;9.062;2022-12-26T14:33:55;1.83;;;1.73;;
22113;SDS011;11223;49.968;9.062;2022-12-26T14:36:34;1.67;;;1.50;;
22113;SDS011;11223;49.968;9.062;2022-12-26T14:39:21;2.13;;;2.03;;
22113;SDS011;11223;49.968;9.062;2022-12-26T14:44:50;1.95;;;1.83;;
22113;SDS011;11223;49.968;9.062;2022-12-26T14:47:33;2.03;;;1.85;;
22113;SDS011;11223;49.968;9.062;2022-12-26T14:50:38;1.65;;;1.52;;
22113;SDS011;11223;49.968;9.062;2022-12-26T14:56:01;1.75;;;1.55;;
22113;SDS011;11223;49.968;9.062;2022-12-26T15:15:30;2.65;;;1.95;;
22113;SDS011;11223;49.968;9.062;2022-12-26T15:18:28;2.17;;;2.03;;
22113;SDS011;11223;49.968;9.062;2022-12-26T15:24:21;1.60;;;1.50;;
22113;SDS011;11223;49.968;9.062;2022-12-26T15:27:14;2.38;;;1.25;;
22113;SDS011;11223;49.968;9.062;2022-12-26T15:30:14;1.98;;;1.58;;
22113;SDS011;11223;49.968;9.062;2022-12-26T15:41:09;1.77;;;1.52;;
22113;SDS011;11223;49.968;9.062;2022-12-26T15:46:42;1.88;;;1.70;;
22113;SDS011;11223;49.968;9.062;2022-12-26T15:59:51;1.92;;;1.25;;
22113;SDS011;11223;49.968;9.062;2022-12-26T16:02:47;1.25;;;1.15;;
22113;SDS011;11223;49.968;9.062;2022-12-26T16:05:31;2.10;;;1.40;;
22113;SDS011;11223;49.968;9.062;2022-12-26T16:11:18;2.67;;;1.02;;
22113;SDS011;11223;49.968;9.062;2022-12-26T16:16:28;1.33;;;0.60;;
22113;SDS011;11223;49.968;9.062;2022-12-26T16:19:14;0.80;;;0.68;;
22113;SDS011;11223;49.968;9.062;2022-12-26T16:21:44;1.35;;;0.63;;
22113;SDS011;11223;49.968;9.062;2022-12-26T16:24:32;0.95;;;0.52;;
22113;SDS011;11223;49.968;9.062;2022-12-26T16:27:01;0.70;;;0.50;;
22113;SDS011;11223;49.968;9.062;2022-12-26T16:29:29;1.00;;;0.60;;
22113;SDS011;11223;49.968;9.062;2022-12-26T16:32:02;0.60;;;0.50;;
22113;SDS011;11223;49.968;9.062;2022-12-26T16:34:31;0.88;;;0.57;;
22113;SDS011;11223;49.968;9.062;2022-12-26T16:36:59;8.05;;;0.80;;
22113;SDS011;11223;49.968;9.062;2022-12-26T16:39:25;1.25;;;0.85;;
22113;SDS011;11223;49.968;9.062;2022-12-26T16:42:02;1.47;;;0.80;;
22113;SDS011;11223;49.968;9.062;2022-12-26T16:44:34;0.80;;;0.75;;
22113;SDS011;11223;49.968;9.062;2022-12-26T16:47:04;1.50;;;1.27;;
22113;SDS011;11223;49.968;9.062;2022-12-26T16:49:34;0.80;;;0.77;;
22113;SDS011;11223;49.968;9.062;2022-12-26T16:52:00;0.90;;;0.80;;
22113;SDS011;11223;49.968;9.062;2022-12-26T16:54:39;0.90;;;0.70;;
22113;SDS011;11223;49.968;9.062;2022-12-26T16:57:18;1.20;;;0.75;;
22113;SDS011;11223;49.968;9.062;2022-12-26T16:59:47;0.98;;;0.70;;
22113;SDS011;11223;49.968;9.062;2022-12-26T17:02:26;1.55;;;1.17;;
22113;SDS011;11223;49.968;9.062;2022-12-26T17:04:59;2.53;;;0.63;;
22113;SDS011;11223;49.968;9.062;2022-12-26T17:07:28;2.15;;;0.82;;
22113;SDS011;11223;49.968;9.062;2022-12-26T17:09:56;1.52;;;0.68;;
22113;SDS011;11223;49.968;9.062;2022-12-26T17:12:25;0.70;;;0.63;;
22113;SDS011;11223;49.968;9.062;2022-12-26T17:14:55;1.30;;;1.05;;
22113;SDS011;11223;49.968;9.062;2022-12-26T17:19:50;1.83;;;0.90;;
22113;SDS011;11223;49.968;9.062;2022-12-26T17:22:28;0.90;;;0.70;;
22113;SDS011;11223;49.968;9.062;2022-12-26T17:30:33;0.98;;;0.70;;
22113;SDS011;11223;49.968;9.062;2022-12-26T17:33:02;1.02;;;0.70;;
22113;SDS011;11223;49.968;9.062;2022-12-26T17:35:43;1.75;;;0.85;;
22113;SDS011;11223;49.968;9.062;2022-12-26T17:38:36;0.85;;;0.65;;
22113;SDS011;11223;49.968;9.062;2022-12-26T17:41:03;2.35;;;1.40;;
22113;SDS011;11223;49.968;9.062;2022-12-26T17:43:37;1.45;;;1.30;;
22113;SDS011;11223;49.968;9.062;2022-12-26T17:46:05;1.98;;;1.80;;
22113;SDS011;11223;49.968;9.062;2022-12-26T17:48:32;2.10;;;0.90;;
22113;SDS011;11223;49.968;9.062;2022-12-26T17:50:58;0.75;;;0.57;;
22113;SDS011;11223;49.968;9.062;2022-12-26T17:53:27;3.50;;;0.85;;
22113;SDS011;11223;49.968;9.062;2022-12-26T17:55:56;1.40;;;1.15;;
22113;SDS011;11223;49.968;9.062;2022-12-26T17:58:25;1.77;;;1.20;;
22113;SDS011;11223;49.968;9.062;2022-12-26T18:00:52;1.13;;;0.85;;
22113;SDS011;11223;49.968;9.062;2022-12-26T18:03:17;1.67;;;0.90;;
22113;SDS011;11223;49.968;9.062;2022-12-26T18:05:43;0.88;;;0.70;;
22113;SDS011;11223;49.968;9.062;2022-12-26T18:08:28;1.63;;;1.02;;
22113;SDS011;11223;49.968;9.062;2022-12-26T18:10:57;1.52;;;1.15;;
22113;SDS011;11223;49.968;9.062;2022-12-26T18:13:23;0.88;;;0.73;;
22113;SDS011;11223;49.968;9.062;2022-12-26T18:15:50;1.13;;;0.67;;
22113;SDS011;11223;49.968;9.062;2022-12-26T18:18:29;0.95;;;0.63;;
22113;SDS011;11223;49.968;9.062;2022-12-26T18:21:09;1.10;;;0.60;;
22113;SDS011;11223;49.968;9.062;2022-12-26T18:23:39;1.23;;;0.90;;
22113;SDS011;11223;49.968;9.062;2022-12-26T18:26:06;1.27;;;0.95;;
22113;SDS011;11223;49.968;9.062;2022-12-26T18:28:37;1.25;;;1.00;;
22113;SDS011;11223;49.968;9.062;2022-12-26T18:31:03;1.63;;;0.90;;
22113;SDS011;11223;49.968;9.062;2022-12-26T18:33:28;0.83;;;0.80;;
22113;SDS011;11223;49.968;9.062;2022-12-26T18:35:54;1.43;;;1.33;;
22113;SDS011;11223;49.968;9.062;2022-12-26T18:38:20;0.97;;;0.83;;
22113;SDS011;11223;49.968;9.062;2022-12-26T18:40:49;0.87;;;0.80;;
22113;SDS011;11223;49.968;9.062;2022-12-26T18:43:21;1.45;;;0.90;;
22113;SDS011;11223;49.968;9.062;2022-12-26T18:45:47;1.17;;;0.80;;
22113;SDS011;11223;49.968;9.062;2022-12-26T18:48:13;1.10;;;0.83;;
22113;SDS011;11223;49.968;9.062;2022-12-26T18:50:40;1.20;;;1.10;;
22113;SDS011;11223;49.968;9.062;2022-12-26T18:53:07;1.30;;;1.20;;
22113;SDS011;11223;49.968;9.062;2022-12-26T18:55:33;1.20;;;1.10;;
22113;SDS011;11223;49.968;9.062;2022-12-26T18:57:58;1.30;;;1.07;;
22113;SDS011;11223;49.968;9.062;2022-12-26T19:00:24;0.90;;;0.80;;
22113;SDS011;11223;49.968;9.062;2022-12-26T19:02:50;0.90;;;0.75;;
22113;SDS011;11223;49.968;9.062;2022-12-26T19:05:23;0.75;;;0.68;;
22113;SDS011;11223;49.968;9.062;2022-12-26T19:07:58;0.93;;;0.63;;
22113;SDS011;11223;49.968;9.062;2022-12-26T19:10:26;2.70;;;0.73;;
22113;SDS011;11223;49.968;9.062;2022-12-26T19:12:53;0.98;;;0.75;;
22113;SDS011;11223;49.968;9.062;2022-12-26T19:15:20;0.90;;;0.70;;
22113;SDS011;11223;49.968;9.062;2022-12-26T19:17:46;1.10;;;0.90;;
22113;SDS011;11223;49.968;9.062;2022-12-26T19:20:16;0.80;;;0.73;;
22113;SDS011;11223;49.968;9.062;2022-12-26T19:22:56;1.30;;;0.95;;